Time;durP1;ratioP1;P1;durP2;ratioP2;P2;SDS_P1;SDS_P2;PMS_P1;PMS_P2;Temp;Humidity;BMP_temperature;BMP_pressure;BME280_temperature;BME280_humidity;BME280_pressure;Samples;Min_cycle;Max_cycle;Signal;HPM_P1;HPM_P2
2023/09/21 00:00:08;;;;;;;;;;;;;;;23.57;44.25;99094.16;4985875;28;6816;-74
2023/09/21 00:02:33;;;;;;;;;;;;;;;23.61;43.69;99094.94;5000457;28;6820;-74
2023/09/21 00:04:59;;;;;;;;;;;;;;;23.66;44.13;99093.09;4990085;28;6812;-76
2023/09/21 00:07:24;;;;;;;;;;;;;;;23.70;44.01;99081.63;4982820;28;7229;-77
2023/09/21 00:09:50;;;;;;;;;;;;;;;23.74;43.89;99090.25;4982589;28;6784;-75
2023/09/21 00:12:15;;;;;;;;;;;;;;;23.76;43.17;99083.22;4972160;28;6780;-75
2023/09/21 00:14:41;;;;;;;;;;;;;;;23.81;42.92;99086.56;4983948;28;6827;-75
2023/09/21 00:17:08;;;;;;;;;;;;;;;23.83;43.32;99084.75;4995986;28;6916;-76
2023/09/21 00:19:33;;;;;;;;;;;;;;;23.86;42.55;99076.81;4976795;28;7655;-76
2023/09/21 00:21:59;;;;;;;;;;;;;;;23.91;42.67;99071.47;4984157;28;6792;-76
2023/09/21 00:24:24;;;;;;;;;;;;;;;23.92;42.56;99070.56;4985430;28;6776;-77
2023/09/21 00:26:51;;;;;;;;;;;;;;;23.91;43.05;99065.38;5002247;28;6926;-76
2023/09/21 00:29:16;;;;;;;;;;;;;;;23.89;42.21;99070.66;4987409;28;7003;-75
2023/09/21 00:31:42;;;;;;;;;;;;;;;23.87;42.60;99064.59;4985573;28;7211;-75
2023/09/21 00:34:08;;;;;;;;;;;;;;;23.84;42.52;99059.44;4956933;28;7212;-74
2023/09/21 00:36:35;;;;;;;;;;;;;;;23.81;42.46;99054.31;4959324;28;7215;-77
2023/09/21 00:39:02;;;;;;;;;;;;;;;23.76;42.59;99061.41;4985865;28;6854;-76
2023/09/21 00:41:31;;;;;;;;;;;;;;;23.69;42.83;99048.53;4984328;28;6880;-76
2023/09/21 00:43:58;;;;;;;;;;;;;;;23.64;43.32;99049.56;4984723;28;7691;-75
2023/09/21 00:46:27;;;;;;;;;;;;;;;23.57;43.12;99049.72;4975160;28;7107;-75
2023/09/21 00:48:53;;;;;;;;;;;;;;;23.51;43.60;99038.56;4982352;28;6995;-77
2023/09/21 00:51:18;;;;;;;;;;;;;;;23.44;43.17;99043.13;4967198;28;7249;-76
2023/09/21 00:53:45;;;;;;;;;;;;;;;23.37;43.50;99037.19;4984895;28;6955;-75
2023/09/21 00:56:13;;;;;;;;;;;;;;;23.30;43.33;99038.25;4983032;28;6951;-76
2023/09/21 00:58:48;;;;;;;;;;;;;;;23.24;43.41;99035.75;4982425;28;6819;-75
2023/09/21 01:01:18;;;;;;;;;;;;;;;23.17;43.91;99035.91;4967973;28;7004;-76
2023/09/21 01:03:45;;;;;;;;;;;;;;;23.10;44.13;99039.59;4985894;28;7063;-76
2023/09/21 01:06:10;;;;;;;;;;;;;;;23.02;44.05;99028.47;4984324;28;7264;-76
2023/09/21 01:08:36;;;;;;;;;;;;;;;22.97;44.50;99028.59;4981298;28;7227;-76
2023/09/21 01:11:09;;;;;;;;;;;;;;;22.93;44.29;99029.53;4982768;28;6855;-76
2023/09/21 01:13:38;;;;;;;;;;;;;;;22.89;44.42;99022.69;4980293;28;7008;-75
2023/09/21 01:16:04;;;;;;;;;;;;;;;22.84;44.20;99025.41;4981171;28;7007;-75
2023/09/21 01:18:31;;;;;;;;;;;;;;;22.79;44.00;99011.63;4979500;28;7226;-76
2023/09/21 01:21:00;;;;;;;;;;;;;;;22.75;44.69;99017.81;4967008;28;7162;-75
2023/09/21 01:23:39;;;;;;;;;;;;;;;22.71;44.46;99011.78;4963984;28;7031;-75
2023/09/21 01:26:05;;;;;;;;;;;;;;;22.68;44.46;99008.41;4982443;28;6982;-76
2023/09/21 01:28:31;;;;;;;;;;;;;;;22.65;44.75;99011.09;4960230;28;6964;-75
2023/09/21 01:30:56;;;;;;;;;;;;;;;22.61;44.74;99005.09;4961149;28;6980;-75
2023/09/21 01:33:23;;;;;;;;;;;;;;;22.54;45.02;99001.75;4957796;28;7054;-75
2023/09/21 01:35:48;;;;;;;;;;;;;;;22.50;45.09;99007.09;4965131;28;7167;-76
2023/09/21 01:38:14;;;;;;;;;;;;;;;22.46;44.97;98998.44;4981097;28;6792;-77
2023/09/21 01:40:41;;;;;;;;;;;;;;;22.45;45.61;99000.22;4982224;28;6796;-75
2023/09/21 01:43:14;;;;;;;;;;;;;;;22.42;45.11;98982.00;4982427;28;7291;-76
2023/09/21 01:45:40;;;;;;;;;;;;;;;22.42;45.21;98994.19;4958346;28;7282;-75
2023/09/21 01:48:09;;;;;;;;;;;;;;;22.40;45.14;98988.13;4982894;28;6875;-75
2023/09/21 01:50:41;;;;;;;;;;;;;;;22.37;44.91;98976.03;4985314;28;6820;-75
2023/09/21 01:53:10;;;;;;;;;;;;;;;22.35;45.07;98980.41;4982835;28;6879;-75
2023/09/21 01:55:37;;;;;;;;;;;;;;;22.32;45.25;98973.53;4984298;28;7175;-75
2023/09/21 01:58:04;;;;;;;;;;;;;;;22.30;45.27;98972.69;4981706;28;7154;-75
2023/09/21 02:00:30;;;;;;;;;;;;;;;22.29;45.14;98967.53;4967772;28;6989;-76
2023/09/21 02:02:56;;;;;;;;;;;;;;;22.28;45.60;98968.41;4978363;28;7236;-75
2023/09/21 02:05:23;;;;;;;;;;;;;;;22.24;45.51;98958.94;4980144;28;6800;-75
2023/09/21 02:07:50;;;;;;;;;;;;;;;22.20;45.64;98955.53;4982899;28;6863;-76
2023/09/21 02:10:16;;;;;;;;;;;;;;;22.17;45.47;98953.00;4986320;28;6804;-75
2023/09/21 02:12:56;;;;;;;;;;;;;;;22.10;45.84;98943.59;4977426;28;7241;-75
2023/09/21 02:15:23;;;;;;;;;;;;;;;22.04;45.64;98950.69;4968598;28;7012;-76
2023/09/21 02:17:48;;;;;;;;;;;;;;;21.99;45.82;98952.50;4965832;28;7289;-74
2023/09/21 02:20:14;;;;;;;;;;;;;;;21.93;45.93;98942.25;4985915;28;6942;-76
2023/09/21 02:22:50;;;;;;;;;;;;;;;21.87;46.46;98931.94;4961449;28;6986;-75
2023/09/21 02:25:17;;;;;;;;;;;;;;;21.80;46.24;98928.59;4985255;28;7083;-74
2023/09/21 02:27:46;;;;;;;;;;;;;;;21.76;46.28;98935.63;4983451;28;7020;-74
2023/09/21 02:30:17;;;;;;;;;;;;;;;21.72;46.46;98931.34;4993690;28;7179;-73
2023/09/21 02:32:49;;;;;;;;;;;;;;;21.67;46.54;98935.81;4964221;28;6843;-74
2023/09/21 02:35:24;;;;;;;;;;;;;;;21.62;46.66;98932.41;4982842;28;7177;-74
2023/09/21 02:37:51;;;;;;;;;;;;;;;21.56;47.06;98922.97;4964490;28;7279;-74
2023/09/21 02:40:19;;;;;;;;;;;;;;;21.53;46.89;98927.38;4982313;28;6812;-74
2023/09/21 02:42:46;;;;;;;;;;;;;;;21.49;47.10;98917.03;4966224;28;7413;-74
2023/09/21 02:45:12;;;;;;;;;;;;;;;21.46;47.46;98922.31;4982170;28;7229;-74
2023/09/21 02:47:41;;;;;;;;;;;;;;;21.44;47.63;98918.91;4984755;28;7211;-75
2023/09/21 02:50:25;;;;;;;;;;;;;;;21.43;47.64;98917.16;4981985;28;6808;-75
2023/09/21 02:53:12;;;;;;;;;;;;;;;21.41;47.87;98908.50;4968529;28;7266;-76
2023/09/21 02:55:39;;;;;;;;;;;;;;;21.39;47.98;98905.09;4985702;28;6828;-76
2023/09/21 02:58:09;;;;;;;;;;;;;;;21.40;48.10;98908.56;4984546;28;7150;-75
2023/09/21 03:00:39;;;;;;;;;;;;;;;21.40;48.19;98904.19;4982512;28;6828;-76
2023/09/21 03:03:06;;;;;;;;;;;;;;;21.40;48.24;98901.59;4983359;28;7221;-75
2023/09/21 03:05:33;;;;;;;;;;;;;;;21.41;48.59;98898.09;4983654;28;6815;-76
2023/09/21 03:08:13;;;;;;;;;;;;;;;21.41;48.86;98900.69;4981775;28;7063;-76
2023/09/21 03:10:54;;;;;;;;;;;;;;;21.41;48.84;98899.84;4966006;28;7028;-76
2023/09/21 03:13:21;;;;;;;;;;;;;;;21.39;48.71;98889.44;4982349;28;6882;-75
2023/09/21 03:15:48;;;;;;;;;;;;;;;21.39;48.79;98894.66;4981226;28;6796;-74
2023/09/21 03:18:15;;;;;;;;;;;;;;;21.35;48.99;98885.22;4962464;28;6844;-76
2023/09/21 03:20:40;;;;;;;;;;;;;;;21.33;48.99;98881.75;4982455;28;6819;-75
2023/09/21 03:23:09;;;;;;;;;;;;;;;21.28;49.36;98881.00;4982674;28;7062;-75
2023/09/21 03:25:43;;;;;;;;;;;;;;;21.24;49.14;98888.00;4976912;28;7237;-75
2023/09/21 03:28:13;;;;;;;;;;;;;;;21.19;49.35;98876.81;4975761;28;7203;-76
2023/09/21 03:30:43;;;;;;;;;;;;;;;21.16;49.71;98875.16;4982830;28;7081;-74
2023/09/21 03:33:09;;;;;;;;;;;;;;;21.11;49.52;98863.94;4955893;28;7016;-75
2023/09/21 03:35:38;;;;;;;;;;;;;;;21.08;49.87;98867.47;4973384;28;7333;-76
2023/09/21 03:38:15;;;;;;;;;;;;;;;21.05;50.16;98870.16;4969162;28;7607;-78
2023/09/21 03:40:41;;;;;;;;;;;;;;;21.02;50.01;98859.78;4979450;28;7330;-74
2023/09/21 03:43:12;;;;;;;;;;;;;;;21.00;50.47;98863.31;4974292;28;7065;-75
2023/09/21 03:45:38;;;;;;;;;;;;;;;20.97;50.33;98860.78;4974893;28;7424;-76
2023/09/21 03:48:06;;;;;;;;;;;;;;;20.95;50.47;98852.97;4978186;28;6803;-76
2023/09/21 03:50:34;;;;;;;;;;;;;;;20.94;50.61;98854.72;4979261;28;7217;-75
2023/09/21 03:53:02;;;;;;;;;;;;;;;20.94;50.51;98852.09;4976113;28;7223;-76
2023/09/21 03:55:29;;;;;;;;;;;;;;;20.91;50.47;98849.56;4959415;28;7009;-77
2023/09/21 03:57:54;;;;;;;;;;;;;;;20.92;50.66;98848.69;4973563;28;7411;-75
2023/09/21 04:00:36;;;;;;;;;;;;;;;20.88;50.77;98847.03;4972068;28;8566;-76
2023/09/21 04:03:09;;;;;;;;;;;;;;;20.87;51.03;98842.72;4989733;28;7736;-76
2023/09/21 04:05:37;;;;;;;;;;;;;;;20.87;50.79;98845.31;4981107;28;6904;-75
2023/09/21 04:08:06;;;;;;;;;;;;;;;20.87;51.15;98850.53;4995011;28;6807;-75
2023/09/21 04:10:31;;;;;;;;;;;;;;;20.86;50.89;98854.03;4979954;28;6871;-77
2023/09/21 04:12:57;;;;;;;;;;;;;;;20.86;51.30;98848.81;4976822;28;7273;-76
2023/09/21 04:15:27;;;;;;;;;;;;;;;20.86;50.87;98843.63;4964664;28;7162;-77
2023/09/21 04:17:54;;;;;;;;;;;;;;;20.83;50.92;98843.66;4982614;28;6815;-76
2023/09/21 04:20:21;;;;;;;;;;;;;;;20.78;51.20;98835.91;4983693;28;6943;-77
2023/09/21 04:22:49;;;;;;;;;;;;;;;20.75;51.29;98833.38;4985591;28;6981;-77
2023/09/21 04:25:16;;;;;;;;;;;;;;;20.71;51.58;98838.66;4985194;28;6850;-75
2023/09/21 04:27:44;;;;;;;;;;;;;;;20.67;51.33;98835.25;4981752;28;6876;-76
2023/09/21 04:30:14;;;;;;;;;;;;;;;20.62;51.73;98827.53;4985554;28;6982;-76
2023/09/21 04:32:49;;;;;;;;;;;;;;;20.60;52.03;98836.25;4984541;28;7040;-75
2023/09/21 04:35:18;;;;;;;;;;;;;;;20.57;51.69;98837.19;4983240;28;7186;-76
2023/09/21 04:37:48;;;;;;;;;;;;;;;20.53;51.96;98844.19;4982836;28;7383;-77
2023/09/21 04:40:14;;;;;;;;;;;;;;;20.51;52.28;98834.66;4964025;28;7251;-75
2023/09/21 04:42:47;;;;;;;;;;;;;;;20.51;52.52;98837.28;4980445;28;7082;-75
2023/09/21 04:45:16;;;;;;;;;;;;;;;20.51;52.28;98843.31;4980477;28;6977;-77
2023/09/21 04:47:45;;;;;;;;;;;;;;;20.52;52.48;98828.56;4964021;28;6851;-75
2023/09/21 04:50:12;;;;;;;;;;;;;;;20.56;52.35;98824.19;4984723;28;6816;-75
2023/09/21 04:52:37;;;;;;;;;;;;;;;20.58;52.87;98825.88;4982850;28;6995;-76
2023/09/21 04:55:08;;;;;;;;;;;;;;;20.62;52.34;98819.72;4978340;28;8058;-76
2023/09/21 04:57:34;;;;;;;;;;;;;;;20.68;53.03;98822.22;4977717;28;7389;-75
2023/09/21 04:59:59;;;;;;;;;;;;;;;20.76;52.84;98824.66;4996642;28;6787;-76
2023/09/21 05:02:26;;;;;;;;;;;;;;;20.90;52.50;98831.38;4982083;28;7166;-76
2023/09/21 05:04:51;;;;;;;;;;;;;;;21.04;52.69;98831.97;4984764;28;6803;-76
2023/09/21 05:07:17;;;;;;;;;;;;;;;21.20;52.56;98829.91;4960532;28;7240;-77
2023/09/21 05:09:46;;;;;;;;;;;;;;;21.35;52.25;98828.72;4965836;28;7478;-75
2023/09/21 05:12:12;;;;;;;;;;;;;;;21.55;52.21;98827.44;4981503;28;6968;-76
2023/09/21 05:14:38;;;;;;;;;;;;;;;21.73;52.07;98814.91;4986785;28;6776;-77
2023/09/21 05:17:05;;;;;;;;;;;;;;;21.91;51.59;98829.25;4984000;28;6992;-76
2023/09/21 05:19:34;;;;;;;;;;;;;;;22.06;51.05;98825.41;4986075;28;6876;-76
2023/09/21 05:22:00;;;;;;;;;;;;;;;22.19;50.75;98824.22;5000839;28;7006;-77
2023/09/21 05:24:26;;;;;;;;;;;;;;;22.30;50.99;98820.50;4979717;28;7191;-76
2023/09/21 05:26:53;;;;;;;;;;;;;;;22.40;50.72;98821.97;4985622;28;7238;-74
2023/09/21 05:29:22;;;;;;;;;;;;;;;22.50;50.23;98822.59;4961870;28;6986;-76
2023/09/21 05:31:49;;;;;;;;;;;;;;;22.61;50.18;98825.81;4960660;28;6987;-75
2023/09/21 05:34:16;;;;;;;;;;;;;;;22.69;50.18;98822.97;4958940;28;7278;-73
2023/09/21 05:36:44;;;;;;;;;;;;;;;22.78;50.07;98823.63;4993071;28;7070;-72
2023/09/21 05:39:11;;;;;;;;;;;;;;;22.86;49.54;98832.94;4979013;28;6870;-72
2023/09/21 05:41:37;;;;;;;;;;;;;;;22.94;49.68;98824.06;4982764;28;7150;-72
2023/09/21 05:44:02;;;;;;;;;;;;;;;23.00;49.36;98835.19;4983022;28;7066;-71
2023/09/21 05:46:28;;;;;;;;;;;;;;;23.06;49.37;98822.84;4979364;28;6879;-71
2023/09/21 05:48:54;;;;;;;;;;;;;;;23.12;48.77;98815.69;4981214;28;7668;-73
2023/09/21 05:51:19;;;;;;;;;;;;;;;23.18;48.97;98819.88;4983906;28;6888;-72
2023/09/21 05:53:46;;;;;;;;;;;;;;;23.26;48.73;98819.66;4985219;28;6795;-74
2023/09/21 05:56:11;;;;;;;;;;;;;;;23.32;48.69;98806.44;4982220;28;6937;-73
2023/09/21 05:58:37;;;;;;;;;;;;;;;23.37;48.44;98806.31;4983742;28;7254;-71
2023/09/21 06:01:03;;;;;;;;;;;;;;;23.41;48.79;98798.31;4983515;28;6970;-71
2023/09/21 06:03:28;;;;;;;;;;;;;;;23.46;47.98;98797.31;4964561;28;7302;-73
2023/09/21 06:05:54;;;;;;;;;;;;;;;23.51;48.14;98796.25;4997563;28;6780;-71
2023/09/21 06:08:19;;;;;;;;;;;;;;;23.54;47.97;98790.09;4961573;28;7061;-75
2023/09/21 06:10:46;;;;;;;;;;;;;;;23.56;48.36;98785.66;4979841;28;6787;-74
2023/09/21 06:13:12;;;;;;;;;;;;;;;23.57;48.19;98785.63;4983108;28;7327;-72
2023/09/21 06:15:45;;;;;;;;;;;;;;;23.58;47.76;98792.56;4957066;28;7245;-72
2023/09/21 06:18:10;;;;;;;;;;;;;;;23.60;48.54;98789.91;4973926;28;7498;-73
2023/09/21 06:20:36;;;;;;;;;;;;;;;23.60;48.28;98784.69;4974436;28;7319;-72
2023/09/21 06:23:02;;;;;;;;;;;;;;;23.60;48.15;98784.69;4975156;28;7116;-71
2023/09/21 06:25:27;;;;;;;;;;;;;;;23.61;48.37;98794.22;4976730;28;6804;-72
2023/09/21 06:27:53;;;;;;;;;;;;;;;23.64;48.44;98790.66;4979066;28;7160;-71
2023/09/21 06:30:20;;;;;;;;;;;;;;;23.63;48.29;98789.81;4980298;28;6872;-72
2023/09/21 06:32:46;;;;;;;;;;;;;;;23.63;48.74;98794.19;4965884;28;7068;-73
2023/09/21 06:35:14;;;;;;;;;;;;;;;23.62;48.53;98789.88;4992464;28;6962;-74
2023/09/21 06:37:39;;;;;;;;;;;;;;;23.62;48.37;98797.72;4979150;28;6820;-73
2023/09/21 06:40:06;;;;;;;;;;;;;;;23.62;48.84;98801.16;4979512;28;7145;-73
2023/09/21 06:42:32;;;;;;;;;;;;;;;23.62;48.42;98795.94;4982286;28;7218;-72
2023/09/21 06:44:57;;;;;;;;;;;;;;;23.64;48.50;98807.19;4982764;28;6828;-75
2023/09/21 06:47:26;;;;;;;;;;;;;;;23.65;48.79;98803.69;4977673;28;6980;-72
2023/09/21 06:49:53;;;;;;;;;;;;;;;23.68;48.42;98806.22;4973605;28;6808;-74
2023/09/21 06:52:21;;;;;;;;;;;;;;;23.69;48.37;98801.81;4978659;28;6820;-73
2023/09/21 06:54:48;;;;;;;;;;;;;;;23.71;48.88;98810.50;4979027;28;10476;-71
2023/09/21 06:57:15;;;;;;;;;;;;;;;23.71;49.23;98806.13;4961630;28;7896;-72
2023/09/21 06:59:42;;;;;;;;;;;;;;;23.72;49.15;98799.97;4980330;28;6961;-72
2023/09/21 07:02:07;;;;;;;;;;;;;;;23.74;48.70;98806.91;4995130;28;7073;-72
2023/09/21 07:04:33;;;;;;;;;;;;;;;23.75;48.86;98808.63;4995403;28;6795;-72
2023/09/21 07:07:06;;;;;;;;;;;;;;;23.77;48.70;98806.84;4982075;28;7196;-72
2023/09/21 07:09:34;;;;;;;;;;;;;;;23.77;49.24;98810.28;4981589;28;7102;-72
2023/09/21 07:12:00;;;;;;;;;;;;;;;23.79;48.97;98794.56;4970210;28;7140;-72
2023/09/21 07:14:26;;;;;;;;;;;;;;;23.79;48.90;98794.56;4978924;28;7306;-73
2023/09/21 07:16:52;;;;;;;;;;;;;;;23.81;48.58;98798.84;4980220;28;6861;-72
2023/09/21 07:19:18;;;;;;;;;;;;;;;23.83;48.81;98810.09;4981721;28;6966;-71
2023/09/21 07:21:43;;;;;;;;;;;;;;;23.86;48.41;98796.06;4981302;28;6784;-72
2023/09/21 07:24:09;;;;;;;;;;;;;;;23.88;48.77;98803.84;4954021;28;6976;-71
2023/09/21 07:26:34;;;;;;;;;;;;;;;23.90;48.99;98802.03;4963884;28;6989;-72
2023/09/21 07:29:07;;;;;;;;;;;;;;;23.93;48.53;98792.34;4981860;28;7250;-72
2023/09/21 07:31:33;;;;;;;;;;;;;;;23.96;48.70;98801.84;4979922;28;6807;-71
2023/09/21 07:34:02;;;;;;;;;;;;;;;23.99;48.77;98793.88;4981772;28;6860;-71
2023/09/21 07:36:28;;;;;;;;;;;;;;;24.04;48.71;98805.09;4977846;28;7180;-73
2023/09/21 07:38:55;;;;;;;;;;;;;;;24.08;48.54;98798.84;4981228;28;6888;-74
2023/09/21 07:41:21;;;;;;;;;;;;;;;24.11;48.16;98801.38;4982622;28;6815;-71
2023/09/21 07:43:48;;;;;;;;;;;;;;;24.16;48.10;98810.84;4969693;28;7237;-71
2023/09/21 07:46:14;;;;;;;;;;;;;;;24.19;48.01;98813.34;4983726;28;6828;-72
2023/09/21 07:48:41;;;;;;;;;;;;;;;24.22;48.20;98811.47;4984349;28;6897;-74
2023/09/21 07:51:08;;;;;;;;;;;;;;;24.23;47.87;98800.09;4986843;28;6995;-72
2023/09/21 07:53:40;;;;;;;;;;;;;;;24.26;48.28;98797.41;4968290;28;6996;-73
2023/09/21 07:56:10;;;;;;;;;;;;;;;24.27;48.14;98803.47;4969092;28;7094;-72
2023/09/21 07:58:35;;;;;;;;;;;;;;;24.29;47.70;98803.44;4964022;28;7027;-72
2023/09/21 08:01:01;;;;;;;;;;;;;;;24.29;47.81;98808.66;4982643;28;6788;-72
2023/09/21 08:03:26;;;;;;;;;;;;;;;24.28;48.27;98815.66;4985265;28;6870;-72
2023/09/21 08:05:53;;;;;;;;;;;;;;;24.29;48.02;98827.84;4985802;28;6827;-71
2023/09/21 08:08:18;;;;;;;;;;;;;;;24.27;47.70;98829.63;4983727;28;6803;-72
2023/09/21 08:10:44;;;;;;;;;;;;;;;24.27;47.75;98833.13;4984339;28;7401;-72
2023/09/21 08:13:11;;;;;;;;;;;;;;;24.27;48.41;98833.13;4967984;28;7181;-74
2023/09/21 08:15:36;;;;;;;;;;;;;;;24.29;48.28;98835.72;4984391;28;6988;-73
2023/09/21 08:18:02;;;;;;;;;;;;;;;24.34;48.37;98838.16;4962791;28;7011;-73
2023/09/21 08:20:28;;;;;;;;;;;;;;;24.36;47.93;98829.34;4976840;28;6918;-72
2023/09/21 08:22:53;;;;;;;;;;;;;;;24.41;48.65;98843.13;4979953;28;7222;-73
2023/09/21 08:25:19;;;;;;;;;;;;;;;24.48;47.85;98835.06;4979380;28;7400;-71
2023/09/21 08:27:45;;;;;;;;;;;;;;;24.54;47.90;98840.97;4981816;28;7531;-71
2023/09/21 08:30:12;;;;;;;;;;;;;;;24.61;47.72;98851.19;4959544;28;7093;-72
2023/09/21 08:32:39;;;;;;;;;;;;;;;24.66;48.37;98851.91;4982807;28;7560;-72
2023/09/21 08:35:05;;;;;;;;;;;;;;;24.72;48.61;98848.22;4984811;28;6877;-74
2023/09/21 08:37:31;;;;;;;;;;;;;;;24.75;48.31;98841.09;4979684;28;7672;-73
2023/09/21 08:39:57;;;;;;;;;;;;;;;24.76;48.02;98837.56;4957923;28;7076;-72
2023/09/21 08:42:23;;;;;;;;;;;;;;;24.78;48.32;98841.03;4985146;28;7106;-73
2023/09/21 08:44:49;;;;;;;;;;;;;;;24.80;47.93;98839.19;4978049;28;6840;-74
2023/09/21 08:47:15;;;;;;;;;;;;;;;24.84;47.86;98858.28;4957652;28;6992;-74
2023/09/21 08:49:45;;;;;;;;;;;;;;;24.84;48.27;98846.97;4998144;28;6860;-73
2023/09/21 08:52:13;;;;;;;;;;;;;;;24.86;48.00;98860.84;4983822;28;6823;-73
2023/09/21 08:54:40;;;;;;;;;;;;;;;24.86;47.62;98856.47;4969645;28;7370;-74
2023/09/21 08:57:10;;;;;;;;;;;;;;;24.87;48.12;98863.44;4983603;28;6811;-74
2023/09/21 08:59:41;;;;;;;;;;;;;;;24.90;47.94;98865.06;4982682;28;7338;-73
2023/09/21 09:02:12;;;;;;;;;;;;;;;24.91;47.93;98865.03;4981565;28;6907;-72
2023/09/21 09:04:39;;;;;;;;;;;;;;;24.94;48.13;98875.38;4982950;28;7295;-71
2023/09/21 09:07:05;;;;;;;;;;;;;;;24.96;48.15;98872.72;4982828;28;6979;-75
2023/09/21 09:09:30;;;;;;;;;;;;;;;25.00;48.09;98874.31;4966016;28;7057;-72
2023/09/21 09:11:56;;;;;;;;;;;;;;;25.03;48.08;98874.22;4965767;28;7070;-72
2023/09/21 09:14:22;;;;;;;;;;;;;;;25.07;48.14;98870.56;4984171;28;6859;-74
2023/09/21 09:16:49;;;;;;;;;;;;;;;25.12;48.42;98875.63;4977938;28;6808;-75
2023/09/21 09:19:16;;;;;;;;;;;;;;;25.18;48.33;98871.94;4967104;28;7016;-73
2023/09/21 09:21:42;;;;;;;;;;;;;;;25.22;48.06;98881.41;4981670;28;6804;-72
2023/09/21 09:24:14;;;;;;;;;;;;;;;25.27;48.12;98873.38;4995737;28;6803;-72
2023/09/21 09:26:41;;;;;;;;;;;;;;;25.30;47.75;98868.00;4980338;28;6896;-72
2023/09/21 09:29:09;;;;;;;;;;;;;;;25.34;47.67;98873.06;4980588;28;6879;-72
2023/09/21 09:31:35;;;;;;;;;;;;;;;25.38;47.83;98866.78;4981392;28;6812;-72
2023/09/21 09:34:04;;;;;;;;;;;;;;;25.43;48.04;98861.38;4996966;28;6808;-74
2023/09/21 09:36:32;;;;;;;;;;;;;;;25.45;47.52;98874.44;4982794;28;8310;-72
2023/09/21 09:39:00;;;;;;;;;;;;;;;25.43;47.58;98868.41;4983195;28;7281;-73
2023/09/21 09:41:27;;;;;;;;;;;;;;;25.42;47.93;98864.09;4983286;28;6808;-72
2023/09/21 09:43:57;;;;;;;;;;;;;;;25.41;47.91;98870.25;4984321;28;6827;-73
2023/09/21 09:46:23;;;;;;;;;;;;;;;25.39;47.49;98875.53;4964427;28;6995;-73
2023/09/21 09:48:50;;;;;;;;;;;;;;;25.38;47.88;98879.91;4978435;28;7178;-74
2023/09/21 09:51:23;;;;;;;;;;;;;;;25.37;47.99;98878.19;4964791;28;6843;-72
2023/09/21 09:53:52;;;;;;;;;;;;;;;25.39;47.86;98870.28;4983102;28;6967;-71
2023/09/21 09:56:19;;;;;;;;;;;;;;;25.41;48.18;98865.84;4981387;28;6975;-72
2023/09/21 09:58:47;;;;;;;;;;;;;;;25.44;48.11;98867.50;4982155;28;6807;-72
2023/09/21 10:01:14;;;;;;;;;;;;;;;25.46;48.13;98865.66;4980630;28;6812;-74
2023/09/21 10:03:40;;;;;;;;;;;;;;;25.49;47.62;98863.78;4963330;28;7192;-73
2023/09/21 10:06:09;;;;;;;;;;;;;;;25.55;47.84;98867.13;4980086;28;7030;-71
2023/09/21 10:08:38;;;;;;;;;;;;;;;25.59;48.07;98866.94;4980213;28;6858;-74
2023/09/21 10:11:06;;;;;;;;;;;;;;;25.67;48.47;98868.41;4982636;28;7228;-72
2023/09/21 10:13:34;;;;;;;;;;;;;;;25.76;48.32;98870.66;4979953;28;6816;-72
2023/09/21 10:16:05;;;;;;;;;;;;;;;25.87;48.26;98865.00;4960789;28;7257;-73
2023/09/21 10:18:40;;;;;;;;;;;;;;;25.97;48.14;98871.59;4971790;28;6811;-73
2023/09/21 10:21:31;;;;;;;;;;;;;;;26.05;47.99;98873.91;4996456;28;6803;-73
2023/09/21 10:24:06;;;;;;;;;;;;;;;26.09;47.86;98858.88;4970570;28;6792;-74
2023/09/21 10:26:38;;;;;;;;;;;;;;;26.11;47.89;98857.91;4981104;28;7178;-73
2023/09/21 10:29:06;;;;;;;;;;;;;;;26.14;47.33;98856.94;4995166;28;7157;-73
2023/09/21 10:31:55;;;;;;;;;;;;;;;26.13;47.44;98844.72;4954944;28;6998;-72
2023/09/21 10:34:24;;;;;;;;;;;;;;;26.09;47.47;98854.50;4981333;28;6820;-71
2023/09/21 10:37:06;;;;;;;;;;;;;;;26.07;47.14;98854.56;4983966;28;6800;-73
2023/09/21 10:39:32;;;;;;;;;;;;;;;26.05;47.26;98850.28;4998224;28;7003;-71
2023/09/21 10:42:03;;;;;;;;;;;;;;;26.02;47.26;98843.38;4961709;28;7485;-72
2023/09/21 10:44:53;;;;;;;;;;;;;;;25.99;47.19;98843.50;4983585;28;6856;-72
2023/09/21 10:47:31;;;;;;;;;;;;;;;26.01;47.49;98830.31;4979919;28;7006;-72
2023/09/21 10:49:59;;;;;;;;;;;;;;;26.03;47.38;98834.59;4978109;28;6888;-72
2023/09/21 10:52:27;;;;;;;;;;;;;;;26.06;47.59;98825.72;4959522;28;7599;-72
2023/09/21 10:54:54;;;;;;;;;;;;;;;26.11;47.41;98822.91;4964732;28;7310;-71
2023/09/21 10:57:27;;;;;;;;;;;;;;;26.14;47.44;98809.69;4978975;28;7223;-74
2023/09/21 10:59:53;;;;;;;;;;;;;;;26.17;47.14;98802.53;4979941;28;6851;-72
2023/09/21 11:02:20;;;;;;;;;;;;;;;26.18;47.22;98803.38;4980490;28;6988;-71
2023/09/21 11:04:48;;;;;;;;;;;;;;;26.19;47.43;98805.97;4978426;28;7098;-72
2023/09/21 11:07:16;;;;;;;;;;;;;;;26.20;47.30;98799.81;4997189;28;7188;-71
2023/09/21 11:09:43;;;;;;;;;;;;;;;26.23;47.28;98796.19;4978408;28;7759;-71
2023/09/21 11:12:13;;;;;;;;;;;;;;;26.25;47.27;98788.25;4977999;28;7880;-72
2023/09/21 11:14:41;;;;;;;;;;;;;;;26.27;47.23;98789.03;4994461;28;7560;-72
2023/09/21 11:17:07;;;;;;;;;;;;;;;26.30;47.47;98775.78;4979240;28;6808;-73
2023/09/21 11:19:33;;;;;;;;;;;;;;;26.36;46.95;98772.03;4974649;28;7197;-73
2023/09/21 11:22:01;;;;;;;;;;;;;;;26.41;47.48;98770.91;4981246;28;7711;-73
2023/09/21 11:24:27;;;;;;;;;;;;;;;26.50;47.08;98772.28;4979437;28;7266;-72
2023/09/21 11:26:54;;;;;;;;;;;;;;;26.52;46.42;98765.19;4981235;28;7462;-72
2023/09/21 11:29:20;;;;;;;;;;;;;;;26.56;46.75;98763.28;4978702;28;7616;-71
2023/09/21 11:31:50;;;;;;;;;;;;;;;26.58;46.59;98761.44;4978601;28;7579;-73
2023/09/21 11:34:16;;;;;;;;;;;;;;;26.67;46.77;98757.53;4964670;28;7602;-72
2023/09/21 11:36:42;;;;;;;;;;;;;;;26.75;46.78;98743.16;4965210;28;7169;-71
2023/09/21 11:39:08;;;;;;;;;;;;;;;26.84;45.89;98751.50;4982847;28;6821;-72
2023/09/21 11:41:34;;;;;;;;;;;;;;;26.86;46.15;98749.69;4980123;28;7112;-72
2023/09/21 11:44:06;;;;;;;;;;;;;;;26.86;45.94;98752.31;4982071;28;7036;-72
2023/09/21 11:46:32;;;;;;;;;;;;;;;26.83;46.21;98747.19;4965384;28;7027;-71
2023/09/21 11:48:58;;;;;;;;;;;;;;;26.76;45.98;98742.22;4981606;28;7110;-72
2023/09/21 11:51:28;;;;;;;;;;;;;;;26.68;45.90;98741.72;4980739;28;6788;-74
2023/09/21 11:53:58;;;;;;;;;;;;;;;26.60;45.82;98742.03;4981340;28;7038;-72
2023/09/21 11:56:24;;;;;;;;;;;;;;;26.52;46.04;98740.69;4982056;28;6808;-74
2023/09/21 11:58:49;;;;;;;;;;;;;;;26.41;45.91;98734.16;4985582;28;6807;-71
2023/09/21 12:01:19;;;;;;;;;;;;;;;26.33;46.10;98728.38;4981640;28;6795;-74
2023/09/21 12:03:45;;;;;;;;;;;;;;;26.26;46.26;98733.03;4984476;28;9759;-71
2023/09/21 12:06:12;;;;;;;;;;;;;;;26.19;46.40;98731.56;4999636;28;6796;-71
2023/09/21 12:08:37;;;;;;;;;;;;;;;26.03;46.58;98739.25;4986554;28;7185;-71
2023/09/21 12:11:04;;;;;;;;;;;;;;;25.74;46.83;98733.44;4984944;28;6776;-73
2023/09/21 12:13:29;;;;;;;;;;;;;;;25.48;47.54;98732.69;4984035;28;6864;-73
2023/09/21 12:15:58;;;;;;;;;;;;;;;25.30;48.03;98729.94;4968298;28;7209;-73
2023/09/21 12:18:26;;;;;;;;;;;;;;;25.21;49.13;98732.91;4983331;28;6887;-73
2023/09/21 12:20:57;;;;;;;;;;;;;;;25.20;49.77;98731.19;4981407;28;7231;-73
2023/09/21 12:23:25;;;;;;;;;;;;;;;25.17;49.86;98720.81;4997287;28;6812;-73
2023/09/21 12:25:51;;;;;;;;;;;;;;;25.13;50.35;98721.88;4982968;28;7606;-73
2023/09/21 12:28:18;;;;;;;;;;;;;;;25.11;50.61;98721.91;4983916;28;6791;-73
2023/09/21 12:30:45;;;;;;;;;;;;;;;25.04;50.51;98708.19;4980876;28;6824;-73
2023/09/21 12:33:15;;;;;;;;;;;;;;;24.84;50.57;98711.56;4984180;28;7203;-73
2023/09/21 12:35:41;;;;;;;;;;;;;;;24.58;50.84;98729.09;4977732;28;6861;-73
2023/09/21 12:38:06;;;;;;;;;;;;;;;24.31;51.47;98738.78;4995990;28;7587;-73
2023/09/21 12:40:32;;;;;;;;;;;;;;;24.02;52.30;98738.00;4963114;28;6968;-73
2023/09/21 12:42:57;;;;;;;;;;;;;;;23.68;52.76;98724.28;4964677;28;6938;-73
2023/09/21 12:45:23;;;;;;;;;;;;;;;23.35;53.17;98729.69;4967114;28;6904;-73
2023/09/21 12:47:48;;;;;;;;;;;;;;;23.10;54.21;98736.50;4975090;28;7082;-73
2023/09/21 12:50:20;;;;;;;;;;;;;;;22.92;54.30;98739.66;4973279;23;7161;-83
2023/09/21 12:55:23;;;;;;;;;;;;;;;22.70;56.05;98719.41;4964812;28;7033;-75
2023/09/21 12:57:51;;;;;;;;;;;;;;;22.74;57.10;98723.63;4977640;28;6805;-74
2023/09/21 13:00:22;;;;;;;;;;;;;;;22.78;57.72;98711.34;4971209;28;10223;-73
2023/09/21 13:02:48;;;;;;;;;;;;;;;22.81;57.58;98709.50;4980548;23;7240;-75